Time;durP1;ratioP1;P1;durP2;ratioP2;P2;SDS_P1;SDS_P2;PMS_P1;PMS_P2;Temp;Humidity;BMP_temperature;BMP_pressure;BME280_temperature;BME280_humidity;BME280_pressure;Samples;Min_cycle;Max_cycle;Signal;HPM_P1;HPM_P2
2022/06/09 00:01:17;;;;;;;1.80;1.20;;;23.70;86.70;;;;;;6241490;27;89066;-63
2022/06/09 00:04:23;;;;;;;2.67;1.00;;;23.70;86.50;;;;;;6238334;27;89000;-63
2022/06/09 00:07:26;;;;;;;1.30;1.02;;;23.70;86.40;;;;;;6249564;28;88418;-63
2022/06/09 00:10:34;;;;;;;1.65;1.17;;;23.60;86.50;;;;;;6244083;27;89056;-63
2022/06/09 00:13:38;;;;;;;1.65;1.33;;;23.70;86.40;;;;;;6251434;27;87957;-63
2022/06/09 00:16:43;;;;;;;1.85;1.45;;;23.60;86.70;;;;;;6240108;27;90152;-62
2022/06/09 00:19:45;;;;;;;1.98;1.13;;;23.60;86.70;;;;;;6243152;27;89042;-63
2022/06/09 00:22:47;;;;;;;1.10;1.00;;;23.60;86.90;;;;;;6241378;27;88193;-63
2022/06/09 00:25:49;;;;;;;1.95;1.10;;;23.60;86.90;;;;;;6254635;27;88939;-63
2022/06/09 00:28:51;;;;;;;1.20;1.10;;;23.60;86.90;;;;;;6254004;27;88869;-62
2022/06/09 00:31:55;;;;;;;1.80;1.20;;;23.60;86.40;;;;;;6251815;27;89029;-63
2022/06/09 00:34:57;;;;;;;1.98;1.15;;;23.70;86.40;;;;;;6245030;28;87782;-63
2022/06/09 00:37:59;;;;;;;1.38;1.27;;;23.60;86.40;;;;;;6252830;27;88341;-63
2022/06/09 00:41:02;;;;;;;1.27;1.10;;;23.60;86.30;;;;;;6243735;27;89122;-62
2022/06/09 00:44:15;;;;;;;1.90;1.30;;;23.60;86.30;;;;;;6254286;27;89137;-63
2022/06/09 00:47:22;;;;;;;1.40;1.30;;;23.60;86.10;;;;;;6241537;27;89987;-62
2022/06/09 00:50:25;;;;;;;1.30;1.20;;;23.60;86.30;;;;;;6240751;27;89268;-63
2022/06/09 00:53:32;;;;;;;1.35;1.13;;;23.60;86.20;;;;;;6249491;27;89416;-63
2022/06/09 00:56:38;;;;;;;1.13;1.02;;;23.60;86.30;;;;;;6249699;27;89012;-63
2022/06/09 00:59:43;;;;;;;1.30;1.20;;;23.60;86.40;;;;;;6243469;27;89020;-63
2022/06/09 01:02:47;;;;;;;1.58;1.00;;;23.60;86.40;;;;;;6251372;28;89604;-62
2022/06/09 01:05:52;;;;;;;1.20;1.10;;;23.60;86.60;;;;;;6251711;27;89335;-63
2022/06/09 01:08:59;;;;;;;1.45;1.20;;;23.50;86.70;;;;;;6246379;27;88285;-63
2022/06/09 01:12:01;;;;;;;1.38;1.20;;;23.60;86.90;;;;;;6248399;27;89006;-63
2022/06/09 01:15:07;;;;;;;1.40;1.30;;;23.60;87.00;;;;;;6250786;27;89148;-62
2022/06/09 01:18:21;;;;;;;2.08;1.67;;;23.50;86.90;;;;;;6248308;27;90334;-63
2022/06/09 01:21:50;;;;;;;2.45;1.25;;;23.50;86.60;;;;;;6253303;27;89006;-63
2022/06/09 01:25:18;;;;;;;1.35;1.25;;;23.60;86.50;;;;;;6252261;27;89383;-63
2022/06/09 01:28:58;;;;;;;1.40;1.30;;;23.60;86.60;;;;;;6252042;27;89000;-62
2022/06/09 01:32:06;;;;;;;1.20;1.10;;;23.60;86.60;;;;;;6231086;27;89519;-63
2022/06/09 01:35:21;;;;;;;1.38;1.10;;;23.50;86.60;;;;;;6251391;27;88984;-63
2022/06/09 01:38:23;;;;;;;1.58;1.00;;;23.50;86.70;;;;;;6247434;27;89052;-63
2022/06/09 01:41:26;;;;;;;1.30;1.20;;;23.50;86.60;;;;;;6257908;27;88278;-62
2022/06/09 01:44:28;;;;;;;1.20;1.10;;;23.50;86.60;;;;;;6262950;27;89353;-62
2022/06/09 01:48:00;;;;;;;2.50;1.27;;;23.50;86.70;;;;;;6255302;27;89122;-62
2022/06/09 01:51:07;;;;;;;1.20;1.10;;;23.50;86.80;;;;;;6240580;27;90045;-63
2022/06/09 01:54:14;;;;;;;1.00;0.90;;;23.50;87.10;;;;;;6249890;27;87981;-63
2022/06/09 01:57:21;;;;;;;0.90;0.90;;;23.50;87.10;;;;;;6253334;27;89023;-62
2022/06/09 02:00:25;;;;;;;1.10;1.00;;;23.50;87.20;;;;;;6267888;27;89017;-63
2022/06/09 02:03:32;;;;;;;1.40;1.15;;;23.50;87.30;;;;;;6258071;27;89044;-63
2022/06/09 02:06:35;;;;;;;1.20;1.02;;;23.50;87.10;;;;;;6247005;27;87967;-63
2022/06/09 02:09:39;;;;;;;1.30;1.05;;;23.50;87.00;;;;;;6245841;27;88998;-63
2022/06/09 02:12:41;;;;;;;1.10;1.00;;;23.50;88.00;;;;;;6248012;27;88330;-62
2022/06/09 02:15:47;;;;;;;1.17;1.02;;;23.50;87.10;;;;;;6243132;27;89052;-62
2022/06/09 02:18:52;;;;;;;1.13;1.02;;;23.50;87.00;;;;;;6245866;27;89426;-62
2022/06/09 02:21:54;;;;;;;1.17;1.00;;;23.50;87.10;;;;;;6248423;27;88823;-63
2022/06/09 02:24:56;;;;;;;1.35;1.17;;;23.40;87.10;;;;;;6248679;27;89350;-63
2022/06/09 02:27:58;;;;;;;1.17;1.00;;;23.40;87.20;;;;;;6243877;27;89036;-63
2022/06/09 02:31:01;;;;;;;1.35;1.00;;;23.50;87.20;;;;;;6255572;27;87967;-62
2022/06/09 02:34:04;;;;;;;2.17;1.50;;;23.50;87.60;;;;;;6242999;27;89090;-63
2022/06/09 02:37:06;;;;;;;1.52;1.20;;;23.40;87.40;;;;;;6244038;27;88018;-62
2022/06/09 02:40:09;;;;;;;1.90;1.50;;;23.40;87.50;;;;;;6244822;27;88979;-63
2022/06/09 02:43:11;;;;;;;1.35;1.23;;;23.50;87.70;;;;;;6246308;27;88260;-63
2022/06/09 02:46:13;;;;;;;1.20;1.10;;;23.40;87.80;;;;;;6252666;27;89318;-62
2022/06/09 02:49:17;;;;;;;1.35;1.20;;;23.50;87.90;;;;;;6256448;27;89346;-63
2022/06/09 02:52:19;;;;;;;1.38;1.20;;;23.50;88.10;;;;;;6241364;27;89997;-63
2022/06/09 02:55:21;;;;;;;1.30;1.20;;;23.40;87.80;;;;;;6249384;27;89401;-62
2022/06/09 02:58:23;;;;;;;1.60;1.40;;;23.40;87.90;;;;;;6245933;27;89470;-62
2022/06/09 03:01:26;;;;;;;1.88;1.40;;;23.40;88.00;;;;;;6251254;27;89111;-62
2022/06/09 03:04:30;;;;;;;1.73;1.30;;;23.40;88.00;;;;;;6242262;27;89103;-62
2022/06/09 03:07:32;;;;;;;1.40;1.30;;;23.40;88.10;;;;;;6236942;27;89280;-62
2022/06/09 03:10:34;;;;;;;1.58;1.40;;;23.40;88.10;;;;;;6255688;27;89601;-62
2022/06/09 03:13:36;;;;;;;1.67;1.50;;;23.40;88.10;;;;;;6251153;27;88238;-63
2022/06/09 03:16:38;;;;;;;2.47;1.80;;;23.40;88.10;;;;;;6254556;27;88252;-62
2022/06/09 03:19:42;;;;;;;1.60;1.50;;;23.40;88.10;;;;;;6244988;27;89094;-63
2022/06/09 03:22:44;;;;;;;1.33;1.20;;;23.40;88.10;;;;;;6241780;27;89990;-62
2022/06/09 03:25:46;;;;;;;1.55;1.30;;;23.40;88.10;;;;;;6245323;27;89249;-62
2022/06/09 03:28:48;;;;;;;1.60;1.30;;;23.40;88.30;;;;;;6242628;27;89371;-62
2022/06/09 03:31:50;;;;;;;1.48;1.35;;;23.40;88.30;;;;;;6239581;27;89462;-63
2022/06/09 03:34:53;;;;;;;1.60;1.50;;;23.40;88.30;;;;;;6246618;27;89133;-62
2022/06/09 03:37:56;;;;;;;1.88;1.58;;;23.40;88.40;;;;;;6245645;27;89009;-62
2022/06/09 03:40:58;;;;;;;1.80;1.50;;;23.40;88.50;;;;;;6253283;27;89199;-62
2022/06/09 03:44:00;;;;;;;1.98;1.60;;;23.40;88.40;;;;;;6242133;27;88300;-63
2022/06/09 03:47:02;;;;;;;1.60;1.38;;;23.40;88.30;;;;;;6253185;27;89018;-62
2022/06/09 03:50:07;;;;;;;1.50;1.40;;;23.40;88.20;;;;;;6240896;27;89006;-63
2022/06/09 03:53:09;;;;;;;1.40;1.25;;;23.40;88.30;;;;;;6246183;27;89986;-63
2022/06/09 03:56:16;;;;;;;1.40;1.30;;;23.40;88.30;;;;;;6232817;27;89124;-62
2022/06/09 03:59:18;;;;;;;1.92;1.45;;;23.40;88.30;;;;;;6243810;27;89041;-63
2022/06/09 04:02:23;;;;;;;1.50;1.40;;;23.30;88.10;;;;;;6245914;27;89054;-62
2022/06/09 04:05:27;;;;;;;1.30;1.20;;;23.40;88.30;;;;;;6241054;27;87959;-63
2022/06/09 04:08:29;;;;;;;1.58;1.42;;;23.30;88.30;;;;;;6255871;27;89017;-62
2022/06/09 04:11:32;;;;;;;1.40;1.25;;;23.40;88.30;;;;;;6233077;27;89048;-62
2022/06/09 04:14:34;;;;;;;1.55;1.25;;;23.40;88.30;;;;;;6233982;27;87548;-62
2022/06/09 04:17:36;;;;;;;1.55;1.45;;;23.30;88.40;;;;;;6268375;27;89042;-62
2022/06/09 04:20:39;;;;;;;1.40;1.30;;;23.30;88.50;;;;;;6245655;27;89213;-62
2022/06/09 04:23:41;;;;;;;1.58;1.35;;;23.30;88.60;;;;;;6252901;27;89993;-62
2022/06/09 04:26:44;;;;;;;1.30;1.20;;;23.40;88.70;;;;;;6240986;27;89386;-63
2022/06/09 04:29:46;;;;;;;1.38;1.23;;;23.40;88.80;;;;;;6239530;27;88361;-62
2022/06/09 04:32:48;;;;;;;1.45;1.33;;;23.30;88.80;;;;;;6231252;27;88987;-63
2022/06/09 04:35:51;;;;;;;1.38;1.27;;;23.30;88.60;;;;;;6246421;27;87922;-62
2022/06/09 04:38:54;;;;;;;1.17;1.08;;;23.40;88.50;;;;;;6246072;27;89072;-63
2022/06/09 04:41:55;;;;;;;1.50;1.20;;;23.30;88.40;;;;;;6252082;27;89041;-62
2022/06/09 04:44:57;;;;;;;1.55;1.40;;;23.30;88.40;;;;;;6244498;27;88947;-63
2022/06/09 04:48:00;;;;;;;1.85;1.23;;;23.30;88.40;;;;;;6250738;27;90335;-63
2022/06/09 04:51:05;;;;;;;1.58;1.38;;;23.30;88.40;;;;;;6250898;27;88985;-62
2022/06/09 04:54:07;;;;;;;1.58;1.40;;;23.30;88.40;;;;;;6244458;27;90315;-62
2022/06/09 04:57:09;;;;;;;1.30;1.20;;;23.30;88.50;;;;;;6246108;27;88813;-62
2022/06/09 05:00:15;;;;;;;1.27;1.10;;;23.30;88.40;;;;;;6240477;27;89143;-63
2022/06/09 05:03:17;;;;;;;1.52;1.42;;;23.30;88.50;;;;;;6256130;27;89171;-64
2022/06/09 05:06:22;;;;;;;1.50;1.30;;;23.30;88.60;;;;;;6252073;27;89229;-64
2022/06/09 05:09:24;;;;;;;1.30;1.20;;;23.30;88.80;;;;;;6242598;27;89457;-64
2022/06/09 05:12:26;;;;;;;1.20;1.10;;;23.30;88.90;;;;;;6243356;27;89157;-64
2022/06/09 05:15:28;;;;;;;1.55;1.27;;;23.30;88.90;;;;;;6242880;27;88555;-64
2022/06/09 05:18:32;;;;;;;1.50;1.25;;;23.30;88.90;;;;;;6246249;27;89092;-64
2022/06/09 05:21:35;;;;;;;1.40;1.30;;;23.30;89.00;;;;;;6251723;27;89228;-64
2022/06/09 05:24:37;;;;;;;1.30;1.20;;;23.30;88.90;;;;;;6243437;27;89941;-64
2022/06/09 05:27:39;;;;;;;1.35;1.20;;;23.30;88.90;;;;;;6248987;27;87990;-64
2022/06/09 05:30:41;;;;;;;1.50;1.25;;;23.30;89.10;;;;;;6242213;27;88886;-64
2022/06/09 05:33:43;;;;;;;1.52;1.17;;;23.30;89.10;;;;;;6258060;27;88951;-64
2022/06/09 05:36:47;;;;;;;1.45;1.17;;;23.30;89.20;;;;;;6248035;27;89031;-64
2022/06/09 05:46:31;;;;;;;1.10;0.98;;;23.30;89.40;;;;;;6237924;27;86549;-64
2022/06/09 05:49:33;;;;;;;1.00;0.90;;;23.30;89.50;;;;;;6239036;27;89029;-64
2022/06/09 05:52:36;;;;;;;1.20;1.00;;;23.30;89.60;;;;;;6259022;27;89167;-64
2022/06/09 05:55:38;;;;;;;3.22;1.77;;;23.30;89.60;;;;;;6242190;27;90064;-64
2022/06/09 05:58:40;;;;;;;1.30;1.20;;;23.30;89.80;;;;;;6247175;27;89010;-64
2022/06/09 06:01:42;;;;;;;1.35;1.10;;;23.30;89.90;;;;;;6247297;28;89020;-64
2022/06/09 06:04:44;;;;;;;1.00;0.90;;;23.20;89.90;;;;;;6243119;27;89323;-64
2022/06/09 06:07:48;;;;;;;1.10;0.90;;;23.20;90.00;;;;;;6240509;27;89069;-64
2022/06/09 06:10:50;;;;;;;1.00;0.90;;;23.30;90.00;;;;;;6241807;28;88915;-64
2022/06/09 06:13:54;;;;;;;1.10;1.00;;;23.30;90.00;;;;;;6238931;27;89135;-64
2022/06/09 06:16:56;;;;;;;1.55;1.10;;;23.30;90.00;;;;;;6246510;28;88272;-63
2022/06/09 06:19:58;;;;;;;1.00;0.90;;;23.30;90.00;;;;;;6239844;27;89279;-64
2022/06/09 06:23:02;;;;;;;2.53;1.48;;;23.30;90.10;;;;;;6234911;28;89207;-64
2022/06/09 06:26:04;;;;;;;2.35;1.55;;;23.30;90.10;;;;;;6240335;27;89997;-64
2022/06/09 06:29:08;;;;;;;2.28;1.15;;;23.30;90.20;;;;;;6240059;27;89016;-63
2022/06/09 06:32:10;;;;;;;1.10;1.00;;;23.30;90.20;;;;;;6241447;27;89037;-64
2022/06/09 06:35:13;;;;;;;0.90;0.82;;;23.20;90.10;;;;;;6245748;27;89044;-64
2022/06/09 06:38:16;;;;;;;0.88;0.82;;;23.20;90.10;;;;;;6240217;27;89210;-64
2022/06/09 06:41:19;;;;;;;1.10;0.95;;;23.20;90.10;;;;;;6243223;28;89093;-64
2022/06/09 06:44:21;;;;;;;1.35;1.20;;;23.20;90.10;;;;;;6249450;27;89097;-64
2022/06/09 06:47:23;;;;;;;1.27;1.10;;;23.20;90.10;;;;;;6250877;27;88181;-64
2022/06/09 06:50:25;;;;;;;1.20;1.00;;;23.20;90.10;;;;;;6248953;27;89397;-64
2022/06/09 06:53:29;;;;;;;1.48;1.20;;;23.20;90.20;;;;;;6250296;27;89095;-64
2022/06/09 06:56:31;;;;;;;1.60;1.15;;;23.20;90.20;;;;;;6251821;27;90027;-65
2022/06/09 06:59:33;;;;;;;1.25;1.10;;;23.20;90.40;;;;;;6243909;27;89085;-65
2022/06/09 07:02:35;;;;;;;1.15;1.00;;;23.20;90.60;;;;;;6242595;27;89064;-65
2022/06/09 07:05:38;;;;;;;1.33;0.98;;;23.20;90.70;;;;;;6252842;27;89084;-65
2022/06/09 07:08:42;;;;;;;1.30;1.20;;;23.20;90.70;;;;;;6233376;28;89443;-66
2022/06/09 07:11:45;;;;;;;1.10;1.00;;;23.20;90.50;;;;;;6239558;28;89304;-66
2022/06/09 07:14:47;;;;;;;1.17;1.08;;;23.20;90.40;;;;;;6242367;27;89045;-65
2022/06/09 07:17:49;;;;;;;1.38;1.10;;;23.20;90.40;;;;;;6244620;27;88306;-66
2022/06/09 07:20:51;;;;;;;1.77;1.30;;;23.30;90.40;;;;;;6242723;27;89073;-66
2022/06/09 07:23:54;;;;;;;1.38;1.10;;;23.30;90.50;;;;;;6239209;27;89030;-65
2022/06/09 07:26:56;;;;;;;1.75;1.25;;;23.30;90.60;;;;;;6235220;28;90293;-63
2022/06/09 07:29:58;;;;;;;2.35;1.08;;;23.30;90.60;;;;;;6238534;28;89050;-63
2022/06/09 07:33:01;;;;;;;1.20;1.00;;;23.20;90.60;;;;;;6240794;27;89309;-65
2022/06/09 07:36:05;;;;;;;1.33;1.10;;;23.20;90.60;;;;;;6240500;27;89197;-64
2022/06/09 07:39:09;;;;;;;1.30;1.20;;;23.30;90.70;;;;;;6240994;28;89627;-64
2022/06/09 07:42:11;;;;;;;1.02;1.00;;;23.30;90.70;;;;;;6239101;28;89057;-65
2022/06/09 07:45:13;;;;;;;1.80;1.30;;;23.30;90.70;;;;;;6241688;27;88394;-65
2022/06/09 07:48:15;;;;;;;1.40;1.20;;;23.30;90.80;;;;;;6238710;27;87346;-66
2022/06/09 07:51:18;;;;;;;1.48;1.00;;;23.30;90.80;;;;;;6236001;27;89231;-64
2022/06/09 07:54:22;;;;;;;1.50;1.08;;;23.20;91.20;;;;;;6237350;28;89086;-64
2022/06/09 07:57:24;;;;;;;1.88;1.10;;;23.30;91.00;;;;;;6243577;28;90162;-64
2022/06/09 08:00:26;;;;;;;1.95;1.25;;;23.30;91.00;;;;;;6239644;27;89228;-64
2022/06/09 08:03:29;;;;;;;1.02;0.93;;;23.30;91.10;;;;;;6240546;27;88995;-65
2022/06/09 08:06:31;;;;;;;0.75;0.75;;;23.30;91.20;;;;;;6240305;28;89112;-65
2022/06/09 08:09:35;;;;;;;0.90;0.75;;;23.30;91.20;;;;;;6245642;27;89041;-65
2022/06/09 08:12:37;;;;;;;1.13;0.90;;;23.30;91.30;;;;;;6231548;27;89088;-65
2022/06/09 08:15:39;;;;;;;1.02;0.90;;;23.30;91.30;;;;;;6238215;28;89172;-65
2022/06/09 08:18:42;;;;;;;2.25;1.20;;;23.30;91.40;;;;;;6241251;27;88304;-65
2022/06/09 08:21:44;;;;;;;1.08;0.98;;;23.30;91.40;;;;;;6235840;27;89011;-65
2022/06/09 08:24:48;;;;;;;1.17;1.00;;;23.30;91.40;;;;;;6241904;28;87494;-65
2022/06/09 08:27:49;;;;;;;0.80;0.80;;;23.30;91.40;;;;;;6238630;27;90332;-65
2022/06/09 08:30:55;;;;;;;1.35;0.95;;;23.30;91.40;;;;;;6242714;27;89372;-65
2022/06/09 08:33:57;;;;;;;1.05;0.80;;;23.30;91.40;;;;;;6234220;27;89061;-66
2022/06/09 08:36:59;;;;;;;1.13;0.90;;;23.30;91.40;;;;;;6237434;27;89040;-65
2022/06/09 08:40:04;;;;;;;1.13;0.90;;;23.30;91.50;;;;;;6243213;27;89080;-66
2022/06/09 08:43:19;;;;;;;1.00;0.90;;;23.30;91.50;;;;;;6236460;28;89110;-65
2022/06/09 08:46:31;;;;;;;0.75;0.70;;;23.30;91.50;;;;;;6237683;28;89007;-63
2022/06/09 08:49:52;;;;;;;0.80;0.80;;;23.30;91.40;;;;;;6236635;28;87871;-66
2022/06/09 08:52:58;;;;;;;0.80;0.80;;;23.30;91.40;;;;;;6248259;28;89003;-66
2022/06/09 08:56:10;;;;;;;1.40;0.98;;;23.30;91.50;;;;;;6252335;27;89065;-65
2022/06/09 08:59:15;;;;;;;1.02;0.80;;;23.30;91.50;;;;;;6238990;27;89410;-65
2022/06/09 09:02:31;;;;;;;1.15;0.90;;;23.30;91.40;;;;;;6242040;28;89108;-64
2022/06/09 09:05:39;;;;;;;0.77;0.77;;;23.30;91.50;;;;;;6243315;28;89092;-64
2022/06/09 09:08:41;;;;;;;0.80;0.80;;;23.30;91.50;;;;;;6233814;27;88995;-64
2022/06/09 09:11:55;;;;;;;4.30;2.10;;;23.30;91.50;;;;;;6239194;27;88780;-64
2022/06/09 09:15:09;;;;;;;1.40;1.00;;;23.30;93.70;;;;;;6245743;27;89015;-64
2022/06/09 09:18:23;;;;;;;1.00;0.90;;;23.30;94.00;;;;;;6253109;27;89204;-64
2022/06/09 09:21:46;;;;;;;1.48;1.15;;;23.30;92.90;;;;;;6245597;27;88310;-64
2022/06/09 09:25:08;;;;;;;1.60;1.00;;;23.30;92.80;;;;;;6241675;27;89050;-65
2022/06/09 09:28:17;;;;;;;2.45;0.90;;;23.30;92.70;;;;;;6241740;27;89049;-64
2022/06/09 09:31:29;;;;;;;1.02;0.90;;;23.30;92.60;;;;;;6240041;28;90017;-65
2022/06/09 09:34:34;;;;;;;1.17;1.02;;;23.30;92.60;;;;;;6241922;28;87895;-65
2022/06/09 09:37:43;;;;;;;2.28;1.15;;;23.30;92.50;;;;;;6240331;28;89127;-64
2022/06/09 09:40:48;;;;;;;1.10;1.00;;;23.30;92.50;;;;;;6240048;27;88870;-65
2022/06/09 09:43:51;;;;;;;1.17;1.08;;;23.20;92.40;;;;;;6237061;28;89106;-64
2022/06/09 09:46:57;;;;;;;1.10;1.00;;;23.30;92.50;;;;;;6241466;27;89087;-65
2022/06/09 09:50:04;;;;;;;1.35;1.05;;;23.30;92.50;;;;;;6237683;28;87357;-65
2022/06/09 09:53:22;;;;;;;1.20;1.00;;;23.30;92.50;;;;;;6240417;28;88582;-64
2022/06/09 09:56:32;;;;;;;1.25;0.90;;;23.20;92.40;;;;;;6242192;28;89040;-64
2022/06/09 09:59:45;;;;;;;1.42;1.00;;;23.30;92.40;;;;;;6243354;28;89096;-64
2022/06/09 10:09:37;;;;;;;1.40;1.20;;;23.30;92.30;;;;;;6247315;27;87149;-64
2022/06/09 10:12:39;;;;;;;1.38;0.95;;;23.30;92.30;;;;;;6250816;27;89212;-64
2022/06/09 10:15:43;;;;;;;2.13;1.13;;;23.30;92.40;;;;;;6245704;27;88072;-64
2022/06/09 10:18:46;;;;;;;1.60;1.27;;;23.30;92.40;;;;;;6251393;27;89206;-65
2022/06/09 10:21:51;;;;;;;1.35;1.20;;;23.30;92.40;;;;;;6261263;27;89125;-65
2022/06/09 10:24:56;;;;;;;2.00;1.30;;;23.30;92.40;;;;;;6242907;27;88296;-64
2022/06/09 10:28:04;;;;;;;1.52;1.20;;;23.20;92.40;;;;;;6237184;27;87958;-64
2022/06/09 10:31:19;;;;;;;1.38;1.20;;;23.30;92.40;;;;;;6246291;27;89024;-64
2022/06/09 10:34:34;;;;;;;1.73;1.23;;;23.20;92.40;;;;;;6245409;27;89984;-64
2022/06/09 10:37:42;;;;;;;1.38;1.25;;;23.20;92.50;;;;;;6245216;27;89108;-65
2022/06/09 10:40:49;;;;;;;0.90;0.90;;;23.30;92.50;;;;;;6244659;27;89046;-65
2022/06/09 10:44:00;;;;;;;1.30;1.20;;;23.20;92.40;;;;;;6245216;27;89144;-65
2022/06/09 10:57:35;;;;;;;2.00;1.40;;;23.30;92.30;;;;;;6245692;27;86613;-64
2022/06/09 11:00:40;;;;;;;1.38;1.27;;;23.30;92.40;;;;;;6255601;27;89197;-64
2022/06/09 11:03:50;;;;;;;1.10;1.10;;;23.30;92.40;;;;;;6258134;27;88925;-64
2022/06/09 11:07:11;;;;;;;1.20;1.10;;;23.30;92.40;;;;;;6243852;27;90116;-64
2022/06/09 11:10:29;;;;;;;1.42;1.30;;;23.30;92.40;;;;;;6231654;27;89186;-64
2022/06/09 11:13:50;;;;;;;3.10;1.95;;;23.30;92.30;;;;;;6244830;27;87972;-64
2022/06/09 11:17:04;;;;;;;5.38;4.00;;;23.30;92.30;;;;;;6238688;27;89150;-65
2022/06/09 11:20:21;;;;;;;6.45;3.78;;;23.30;92.30;;;;;;6243923;27;89024;-65
2022/06/09 11:23:39;;;;;;;5.50;3.85;;;23.30;92.30;;;;;;6237654;28;89059;-64
2022/06/09 11:26:48;;;;;;;5.70;3.50;;;23.30;92.40;;;;;;6247562;27;89048;-64
2022/06/09 11:30:03;;;;;;;4.53;3.13;;;23.30;92.50;;;;;;6242379;27;88473;-65
2022/06/09 11:33:16;;;;;;;4.20;2.85;;;23.30;92.40;;;;;;6247975;27;89413;-65
2022/06/09 11:36:27;;;;;;;4.57;2.78;;;23.30;92.40;;;;;;6242624;28;89130;-65
2022/06/09 11:39:42;;;;;;;3.17;2.38;;;23.30;92.40;;;;;;6236657;28;90099;-65
2022/06/09 11:42:59;;;;;;;2.78;2.17;;;23.20;92.50;;;;;;6244544;27;89064;-66
2022/06/09 11:46:04;;;;;;;4.35;2.50;;;23.30;92.60;;;;;;6237814;27;88005;-65
2022/06/09 11:49:12;;;;;;;2.88;2.05;;;23.30;92.60;;;;;;6246495;27;89043;-65
2022/06/09 11:52:20;;;;;;;2.88;2.15;;;23.30;92.70;;;;;;6249645;27;89094;-65
2022/06/09 11:55:57;;;;;;;2.90;2.15;;;23.30;92.70;;;;;;6239336;27;88876;-65
2022/06/09 11:58:55;;;;;;;2.65;1.98;;;23.30;92.70;;;;;;6238713;28;89021;-65
2022/06/09 12:02:26;;;;;;;2.83;2.10;;;23.30;92.80;;;;;;6243883;28;88321;-65
2022/06/09 12:05:32;;;;;;;2.88;1.88;;;23.30;92.80;;;;;;6241476;27;89117;-65
2022/06/09 12:08:44;;;;;;;2.50;1.95;;;23.20;92.80;;;;;;6242446;27;89036;-65
2022/06/09 12:11:54;;;;;;;2.60;2.10;;;23.30;92.80;;;;;;6234150;27;90072;-65
2022/06/09 12:15:16;;;;;;;2.50;1.90;;;23.30;92.80;;;;;;6238701;28;87992;-65
2022/06/09 12:18:34;;;;;;;2.28;1.95;;;23.30;92.80;;;;;;6242246;27;89138;-65
2022/06/09 12:21:39;;;;;;;3.05;1.73;;;23.20;92.80;;;;;;6235007;27;89127;-65
2022/06/09 12:25:21;;;;;;;3.28;1.85;;;23.20;92.80;;;;;;6239315;28;89277;-65
2022/06/09 12:28:45;;;;;;;2.88;1.70;;;23.20;92.70;;;;;;6245070;27;89500;-65
2022/06/09 12:32:36;;;;;;;2.45;1.63;;;23.30;92.80;;;;;;6231138;28;89035;-65
2022/06/09 12:35:46;;;;;;;2.35;1.75;;;23.20;92.80;;;;;;6240860;28;88329;-62
2022/06/09 12:38:56;;;;;;;2.35;1.60;;;23.20;92.80;;;;;;6241662;27;89170;-62
2022/06/09 12:42:02;;;;;;;1.80;1.60;;;23.30;92.80;;;;;;6239283;28;89372;-63
2022/06/09 12:45:07;;;;;;;2.05;1.50;;;23.20;92.80;;;;;;6244696;27;90385;-63
2022/06/09 12:48:13;;;;;;;2.58;1.90;;;23.30;92.90;;;;;;6235741;27;89151;-66
2022/06/09 12:51:19;;;;;;;1.75;1.40;;;23.20;92.90;;;;;;6243842;27;89090;-65
2022/06/09 12:54:27;;;;;;;2.80;1.80;;;23.20;92.90;;;;;;6236172;27;89049;-66
2022/06/09 12:57:35;;;;;;;2.83;1.83;;;23.20;92.90;;;;;;6246877;27;88285;-66
2022/06/09 13:00:42;;;;;;;2.97;1.90;;;23.30;92.90;;;;;;6234789;27;89092;-66
2022/06/09 13:03:49;;;;;;;2.45;1.73;;;23.30;92.80;;;;;;6239111;27;89054;-65
2022/06/09 13:06:51;;;;;;;1.95;1.40;;;23.20;92.80;;;;;;6239970;27;88319;-65
2022/06/09 13:10:07;;;;;;;2.00;1.73;;;23.20;92.80;;;;;;6242635;27;89064;-65
2022/06/09 13:13:18;;;;;;;2.10;1.58;;;23.20;92.80;;;;;;6244946;27;88663;-65
2022/06/09 13:16:23;;;;;;;1.50;1.40;;;23.20;92.80;;;;;;6252857;27;89983;-65
2022/06/09 13:19:29;;;;;;;1.80;1.45;;;23.20;92.70;;;;;;6241300;27;87860;-65
2022/06/09 13:22:33;;;;;;;1.50;1.30;;;23.20;92.60;;;;;;6236228;27;89064;-65
2022/06/09 13:25:35;;;;;;;1.60;1.30;;;23.20;92.40;;;;;;6251788;27;89080;-66
2022/06/09 13:28:44;;;;;;;2.10;1.40;;;23.30;92.20;;;;;;6242356;27;89445;-65
2022/06/09 13:31:47;;;;;;;1.40;1.30;;;23.20;92.00;;;;;;6246436;27;89654;-65
2022/06/09 13:34:52;;;;;;;1.60;1.30;;;23.20;91.90;;;;;;6247589;27;88918;-65
2022/06/09 13:38:03;;;;;;;2.17;1.30;;;23.30;91.80;;;;;;6241390;27;87226;-65
2022/06/09 13:41:13;;;;;;;2.80;1.50;;;23.20;91.80;;;;;;6243613;27;87984;-65
2022/06/09 13:44:21;;;;;;;2.88;1.50;;;23.30;91.80;;;;;;6236100;27;89135;-65
2022/06/09 13:47:26;;;;;;;2.00;1.50;;;23.20;91.70;;;;;;6234707;28;90203;-65
2022/06/09 13:50:35;;;;;;;1.75;1.33;;;23.20;91.70;;;;;;6239610;27;89061;-66
2022/06/09 13:53:45;;;;;;;2.55;1.33;;;23.20;91.70;;;;;;6247733;28;89096;-65
2022/06/09 13:56:50;;;;;;;1.80;1.38;;;23.30;91.80;;;;;;6239527;27;89337;-65
2022/06/09 13:59:54;;;;;;;2.10;1.38;;;23.20;91.90;;;;;;6236530;27;89086;-65
2022/06/09 14:03:02;;;;;;;2.42;1.45;;;23.20;92.00;;;;;;6231750;28;89560;-65
2022/06/09 14:06:07;;;;;;;2.45;1.65;;;23.20;91.90;;;;;;6240139;27;89101;-65
2022/06/09 14:09:13;;;;;;;1.95;1.30;;;23.20;91.80;;;;;;6242677;27;88680;-66
2022/06/09 14:12:15;;;;;;;2.33;1.40;;;23.20;91.70;;;;;;6236634;28;88751;-65
2022/06/09 14:15:20;;;;;;;2.65;1.30;;;23.20;91.60;;;;;;6245218;27;87855;-65
2022/06/09 14:18:24;;;;;;;2.47;1.60;;;23.20;91.60;;;;;;6237187;27;90243;-64
2022/06/09 14:21:26;;;;;;;2.05;1.65;;;23.20;91.60;;;;;;6234524;27;87973;-65
2022/06/09 14:24:29;;;;;;;2.50;1.52;;;23.20;91.70;;;;;;6235931;27;88021;-64
2022/06/09 14:27:31;;;;;;;2.60;1.50;;;23.20;91.70;;;;;;6238201;27;89438;-65
2022/06/09 14:30:34;;;;;;;3.25;1.60;;;23.20;91.80;;;;;;6246039;27;89060;-65
2022/06/09 14:33:36;;;;;;;2.28;1.40;;;23.20;91.90;;;;;;6239748;27;89033;-65
2022/06/09 14:36:39;;;;;;;3.28;1.48;;;23.20;91.90;;;;;;6241962;27;89066;-64
2022/06/09 14:39:42;;;;;;;1.50;1.38;;;23.20;92.10;;;;;;6248676;27;88322;-65
2022/06/09 14:42:44;;;;;;;2.38;1.60;;;23.20;92.10;;;;;;6234603;27;88982;-65
2022/06/09 14:45:50;;;;;;;3.40;1.60;;;23.20;92.00;;;;;;6233976;28;89148;-65
2022/06/09 14:48:52;;;;;;;2.80;1.55;;;23.20;92.00;;;;;;6234565;28;90011;-65
2022/06/09 14:51:54;;;;;;;3.15;1.50;;;23.20;92.00;;;;;;6250815;27;89331;-65
2022/06/09 14:54:56;;;;;;;2.25;1.60;;;23.20;92.00;;;;;;6252034;27;89058;-65
2022/06/09 14:57:58;;;;;;;2.40;1.50;;;23.20;91.90;;;;;;6240721;27;89411;-65
2022/06/09 15:01:02;;;;;;;2.10;1.50;;;23.20;92.30;;;;;;6242141;27;89119;-64
2022/06/09 15:04:04;;;;;;;2.53;1.40;;;23.20;92.30;;;;;;6239649;27;87989;-62
2022/06/09 15:07:06;;;;;;;13.88;1.95;;;23.20;92.90;;;;;;6249953;27;89035;-65
2022/06/09 15:10:08;;;;;;;4.57;1.40;;;23.20;93.20;;;;;;6241558;27;88393;-65
2022/06/09 15:13:11;;;;;;;4.70;1.75;;;23.20;94.20;;;;;;6240603;27;89293;-66
2022/06/09 15:16:15;;;;;;;3.20;1.60;;;23.20;99.90;;;;;;6248822;27;89111;-65
2022/06/09 15:19:18;;;;;;;2.35;1.60;;;23.30;97.40;;;;;;6243821;27;89911;-65
2022/06/09 15:22:20;;;;;;;2.92;1.40;;;23.30;94.80;;;;;;6246764;27;89001;-65
2022/06/09 15:25:22;;;;;;;2.00;1.55;;;23.30;93.80;;;;;;6245070;28;89060;-66
2022/06/09 15:28:25;;;;;;;2.22;1.50;;;23.20;93.40;;;;;;6247577;27;88971;-66
2022/06/09 15:31:29;;;;;;;3.00;1.80;;;23.20;93.10;;;;;;6242251;27;89101;-65
2022/06/09 15:34:32;;;;;;;2.50;1.50;;;23.20;92.90;;;;;;6242394;27;89218;-66
2022/06/09 15:37:34;;;;;;;2.33;1.35;;;23.20;92.80;;;;;;6231421;27;89395;-65
2022/06/09 15:40:39;;;;;;;1.92;1.33;;;23.30;92.70;;;;;;6248789;27;88447;-65
2022/06/09 15:43:41;;;;;;;1.77;1.30;;;23.30;92.60;;;;;;6242862;27;89025;-65
2022/06/09 15:46:44;;;;;;;1.90;1.30;;;23.30;92.80;;;;;;6236310;27;89009;-65
2022/06/09 15:49:46;;;;;;;3.63;1.60;;;23.30;92.40;;;;;;6240313;27;90121;-66
2022/06/09 15:52:48;;;;;;;2.15;1.52;;;23.30;92.30;;;;;;6231228;28;89029;-65
2022/06/09 15:55:50;;;;;;;2.20;1.42;;;23.30;92.20;;;;;;6233063;27;89129;-65
2022/06/09 15:58:52;;;;;;;1.90;1.52;;;23.30;92.10;;;;;;6244862;27;88996;-66
2022/06/09 16:02:08;;;;;;;2.00;1.50;;;23.30;92.00;;;;;;6241104;27;88644;-65
2022/06/09 16:05:11;;;;;;;2.25;1.35;;;23.30;92.00;;;;;;6238445;28;88959;-66
2022/06/09 16:08:13;;;;;;;2.08;1.40;;;23.30;92.00;;;;;;6245335;27;89214;-65
2022/06/09 16:11:15;;;;;;;2.40;1.33;;;23.30;92.00;;;;;;6251248;27;89912;-66
2022/06/09 16:14:17;;;;;;;3.65;1.92;;;23.30;91.90;;;;;;6249869;27;88073;-66
2022/06/09 16:17:20;;;;;;;1.65;1.35;;;23.30;91.90;;;;;;6241718;27;88071;-66
2022/06/09 16:20:25;;;;;;;1.40;1.30;;;23.30;92.00;;;;;;6251751;27;90060;-66
2022/06/09 16:23:27;;;;;;;1.52;1.25;;;23.30;92.00;;;;;;6251045;27;89262;-65
2022/06/09 16:26:29;;;;;;;2.65;1.58;;;23.30;92.00;;;;;;6253310;27;89091;-66
2022/06/09 16:29:31;;;;;;;2.22;1.30;;;23.30;92.00;;;;;;6244248;27;88919;-65
2022/06/09 16:32:34;;;;;;;1.60;1.50;;;23.30;91.90;;;;;;6228174;27;89354;-66